• Join FlightAware (Why Join?)
  • Login
  • US Flag 
03:40PM EDT


 

Airport Tracker/Info


-or-


 

Live Flight TrackerFlight Track Log ✈ KAP550 ✈ 31-Oct-2013 ✈ KALB - KMSS

Flight Track Log - Related Links

Times and Time Zones

All times are in EDT time to prevent confusion due to time zone crossing. See the KAP550 flight status page for this flight to view local times or setup timezone preferences in your user account.

Time Position Orientation Groundspeed Altitude Reporting Facility
EDT Latitude Longitude Course Direction KTS MPH feet Rate Location/Type
10:49AM 42.7381 -73.8044 224° Southwest 91 105 1,100  Level Boston Center
10:50AM 42.7183 -73.8300 224° Southwest 106 122 2,600 1,260 Climbing Boston Center
10:51AM 42.7169 -73.8389 258° West 102 117 2,900 600 Climbing Boston Center
10:51AM 42.7058 -73.8636 239° Southwest 105 121 3,200 480 Climbing Boston Center
10:52AM 42.7053 -73.8736 266° West 101 116 3,400 540 Climbing Boston Center
10:52AM 42.7306 -73.8922 332° Northwest 172 198 3,800 660 Climbing Boston Center
10:53AM 42.7456 -73.8897 North 165 190 4,100 720 Climbing Boston Center
10:54AM 42.7906 -73.8933 357° North 162 186 4,800 660 Climbing Boston Center
10:55AM 42.8339 -73.8975 356° North 156 180 5,500 660 Climbing Boston Center
10:56AM 42.8706 -73.9019 355° North 153 176 6,000 600 Climbing Boston Center
10:56AM 42.8806 -73.9014 North 155 178 6,200 540 Climbing Boston Center
10:57AM 42.9131 -73.9047 356° North 155 178 6,600 660 Climbing Boston Center
10:57AM 42.9231 -73.9047 360° North 154 177 6,900 660 Climbing Boston Center
10:58AM 42.9556 -73.9075 356° North 152 175 7,300 540 Climbing Boston Center
10:58AM 42.9650 -73.9075 360° North 151 174 7,500 600 Climbing Boston Center
10:59AM 42.9939 -73.9089 358° North 150 173 7,900 660 Climbing Boston Center
10:59AM 43.0072 -73.9108 354° North 152 175 8,200 540 Climbing Boston Center
11:00AM 43.0533 -73.9142 357° North 154 177 8,700 480 Climbing Boston Center
11:01AM 43.0964 -73.9272 348° North 158 182 9,200 180 Climbing Boston Center
11:02AM 43.1406 -73.9503 339° North 170 196 9,100 -60 Descending Boston Center
11:03AM 43.1894 -73.9733 341° North 185 213 9,100  Level Boston Center
11:04AM 43.2414 -73.9989 340° North 184 212 9,100 -60 Level Boston Center
11:05AM 43.2881 -74.0208 341° North 177 204 9,000 300 Descending Boston Center
11:06AM 43.3308 -74.0406 341° North 162 186 9,800 480 Climbing Boston Center
11:07AM 43.3647 -74.0567 341° North 133 153 10,100 180 Climbing Boston Center
11:08AM 43.4011 -74.0747 340° North 149 171 10,200  Climbing Boston Center
11:09AM 43.4456 -74.0972 340° North 163 188 10,200  Level Boston Center
11:10AM 43.4950 -74.1206 341° North 178 205 10,200  Level Boston Center
11:11AM 43.5525 -74.1481 341° North 183 211 10,200 180 Level Boston Center
11:12AM 43.5956 -74.1697 340° North 167 192 10,600 360 Climbing Boston Center
11:13AM 43.6367 -74.1897 341° North 157 181 11,000 240 Climbing Boston Center
11:14AM 43.6753 -74.2100 339° North 151 174 11,200 60 Climbing Boston Center
11:15AM 43.7181 -74.2317 340° North 159 183 11,200  Level Boston Center
11:16AM 43.7642 -74.2531 341° North 169 194 11,200  Level Boston Center
11:17AM 43.8106 -74.2744 342° North 174 200 11,200  Level Boston Center
11:18AM 43.8558 -74.2997 338° Northwest 175 201 11,200 -180 Level Boston Center
11:19AM 43.9022 -74.3233 340° North 177 204 10,900 -480 Descending Boston Center
11:20AM 43.9606 -74.3614 335° Northwest 188 216 10,300 -540 Descending Boston Center
11:21AM 44.0081 -74.3939 334° Northwest 190 219 9,800 -540 Descending Boston Center
11:22AM 44.0564 -74.4244 336° Northwest 191 220 9,300 -480 Descending Boston Center
11:23AM 44.1044 -74.4569 334° Northwest 191 220 8,900 -360 Descending Boston Center
11:24AM 44.1542 -74.4906 334° Northwest 196 226 8,600 -480 Descending Boston Center
11:25AM 44.2019 -74.5219 335° Northwest 193 222 8,000 -540 Descending Boston Center
11:26AM 44.2497 -74.5547 334° Northwest 192 221 7,600 -420 Descending Boston Center
11:28AM 44.2983 -74.5881 334° Northwest 194 223 7,200 -360 Descending Boston Center
11:29AM 44.3486 -74.6219 334° Northwest 197 227 6,900 -180 Descending Boston Center
11:30AM 44.4050 -74.6600 334° Northwest 192 221 6,900  Level Boston Center
11:31AM 44.4492 -74.6914 333° Northwest 184 212 6,900  Level Boston Center
11:32AM 44.4936 -74.7228 333° Northwest 179 206 7,000  Climbing Boston Center
11:33AM 44.5378 -74.7528 334° Northwest 179 206 6,900 -360 Descending Boston Center
11:34AM 44.5853 -74.7853 334° Northwest 183 211 6,300 -720 Descending Boston Center
11:35AM 44.6375 -74.8161 337° Northwest 194 223 5,500 -660 Descending Boston Center
11:36AM 44.6903 -74.8531 334° Northwest 202 232 5,000 -360 Descending Boston Center
11:37AM 44.7422 -74.9014 327° Northwest 202 232 4,800 -240 Descending Boston Center
11:39AM 44.8132 -74.8607 North  Level FlightAware Approximate